createdAt,value
2018-04-26T00:01:00.214Z,99.90
2018-04-26T00:03:29.995Z,99.90
2018-04-26T00:05:59.789Z,99.90
2018-04-26T00:08:29.572Z,99.90
2018-04-26T00:11:00.120Z,99.90
2018-04-26T00:13:29.899Z,99.90
2018-04-26T00:15:59.690Z,99.90
2018-04-26T00:18:29.597Z,99.90
2018-04-26T00:20:59.390Z,99.90
2018-04-26T00:23:29.183Z,99.90
2018-04-26T00:25:58.986Z,99.90
2018-04-26T00:28:29.519Z,99.90
2018-04-26T00:30:59.312Z,99.90
2018-04-26T00:33:29.871Z,99.90
2018-04-26T00:35:59.664Z,99.90
2018-04-26T00:38:30.219Z,99.90
2018-04-26T00:41:00.014Z,99.90
2018-04-26T00:43:29.794Z,99.90
2018-04-26T00:45:59.596Z,99.90
2018-04-26T00:48:29.382Z,99.90
2018-04-26T00:50:59.175Z,99.90
2018-04-26T00:53:29.079Z,99.90
2018-04-26T00:55:58.875Z,99.90
2018-04-26T00:58:29.418Z,99.90
2018-04-26T01:00:59.210Z,99.90
2018-04-26T01:03:29.771Z,99.90
2018-04-26T01:05:59.573Z,99.90
2018-04-26T01:08:29.352Z,99.90
2018-04-26T01:10:59.132Z,99.90
2018-04-26T01:13:28.914Z,99.90
2018-04-26T01:15:58.694Z,99.90
2018-04-26T01:18:28.476Z,99.90
2018-04-26T01:20:58.275Z,99.90
2018-04-26T01:23:28.055Z,99.90
2018-04-26T01:25:57.848Z,99.90
2018-04-26T01:28:28.398Z,99.90
2018-04-26T01:30:58.204Z,99.90
2018-04-26T01:33:27.991Z,99.90
2018-04-26T01:35:57.800Z,99.90
2018-04-26T01:38:27.600Z,99.90
2018-04-26T01:40:57.386Z,99.90
2018-04-26T01:43:27.187Z,99.90
2018-04-26T01:45:56.987Z,99.90
2018-04-26T01:48:27.607Z,99.90
2018-04-26T01:50:57.431Z,99.90
2018-04-26T01:53:27.232Z,99.90
2018-04-26T01:55:57.037Z,99.90
2018-04-26T01:58:27.607Z,99.90
2018-04-26T02:00:57.405Z,99.90
2018-04-26T02:03:27.199Z,99.90
2018-04-26T02:05:57.000Z,99.90
2018-04-26T02:08:27.561Z,99.90
2018-04-26T02:10:57.348Z,99.90
2018-04-26T02:13:27.151Z,99.90
2018-04-26T02:15:57.707Z,99.90
2018-04-26T02:18:27.511Z,99.90
2018-04-26T02:20:57.299Z,99.90
2018-04-26T02:23:27.859Z,99.90
2018-04-26T02:25:57.650Z,99.90
2018-04-26T02:28:28.219Z,99.90
2018-04-26T02:30:58.008Z,99.90
2018-04-26T02:33:27.807Z,99.90
2018-04-26T02:35:57.616Z,99.90
2018-04-26T02:38:28.183Z,99.90
2018-04-26T02:40:57.986Z,99.90
2018-04-26T02:43:27.795Z,99.90
2018-04-26T02:45:57.580Z,99.90
2018-04-26T02:48:28.151Z,99.90
2018-04-26T02:50:57.934Z,99.90
2018-04-26T02:53:27.721Z,99.90
2018-04-26T02:55:58.292Z,99.90
2018-04-26T02:58:28.078Z,99.90
2018-04-26T03:00:57.875Z,99.90
2018-04-26T03:03:28.440Z,99.90
2018-04-26T03:05:58.242Z,99.90
2018-04-26T03:08:28.044Z,99.90
2018-04-26T03:10:58.596Z,99.90
2018-04-26T03:13:28.395Z,99.90
2018-04-26T03:15:58.192Z,99.90
2018-04-26T03:18:28.771Z,99.90
2018-04-26T03:20:58.562Z,99.90
2018-04-26T03:23:28.381Z,99.90
2018-04-26T03:25:58.160Z,99.90
2018-04-26T03:28:28.724Z,99.90
2018-04-26T03:30:58.543Z,99.90
2018-04-26T03:33:28.371Z,99.90
2018-04-26T03:35:58.158Z,99.90
2018-04-26T03:38:27.961Z,99.90
2018-04-26T03:40:57.754Z,99.90
2018-04-26T03:43:27.547Z,99.90
2018-04-26T03:45:58.112Z,99.90
2018-04-26T03:48:27.915Z,99.90
2018-04-26T03:50:57.711Z,99.90
2018-04-26T03:53:28.275Z,99.90
2018-04-26T03:55:58.068Z,99.90
2018-04-26T03:58:27.872Z,99.90
2018-04-26T04:01:16.067Z,99.90
2018-04-26T04:04:03.571Z,99.90
2018-04-26T04:06:33.358Z,99.90
2018-04-26T04:09:03.171Z,99.90
2018-04-26T04:11:32.960Z,99.90
2018-04-26T04:14:03.534Z,99.90
2018-04-26T04:16:33.324Z,99.90
2018-04-26T04:19:03.128Z,99.90
2018-04-26T04:21:33.685Z,99.90
2018-04-26T04:24:03.490Z,99.90
2018-04-26T04:26:33.280Z,99.90
2018-04-26T04:29:03.855Z,99.90
2018-04-26T04:31:33.647Z,99.90
2018-04-26T04:34:03.455Z,99.90
2018-04-26T04:36:33.259Z,99.90
2018-04-26T04:39:03.070Z,99.90
2018-04-26T04:41:32.863Z,99.90
2018-04-26T04:44:03.435Z,99.90
2018-04-26T04:46:33.227Z,99.90
2018-04-26T04:49:03.036Z,99.90
2018-04-26T04:51:32.824Z,99.90
2018-04-26T04:54:03.397Z,99.90
2018-04-26T04:56:33.192Z,99.90
2018-04-26T04:59:03.001Z,99.90
2018-04-26T05:01:33.555Z,99.90
2018-04-26T05:04:03.365Z,99.90
2018-04-26T05:06:33.143Z,99.90
2018-04-26T05:09:03.703Z,99.90
2018-04-26T05:11:33.503Z,99.90
2018-04-26T05:14:03.306Z,99.90
2018-04-26T05:16:33.108Z,99.90
2018-04-26T05:19:03.677Z,99.90
2018-04-26T05:21:33.476Z,99.90
2018-04-26T05:24:03.285Z,99.90
2018-04-26T05:26:33.076Z,99.90
2018-04-26T05:29:03.638Z,99.90
2018-04-26T05:31:33.423Z,99.90
2018-04-26T05:34:03.223Z,99.90
2018-04-26T05:36:33.780Z,99.90
2018-04-26T05:39:03.571Z,99.90
2018-04-26T05:41:34.140Z,99.90
2018-04-26T05:44:03.934Z,99.90
2018-04-26T05:46:33.733Z,99.90
2018-04-26T05:49:04.300Z,99.90
2018-04-26T05:51:34.084Z,99.90
2018-04-26T05:54:03.878Z,99.90
2018-04-26T05:56:34.440Z,99.90
2018-04-26T05:59:04.244Z,99.90
2018-04-26T06:01:34.047Z,99.90
2018-04-26T06:04:03.852Z,99.90
2018-04-26T06:06:33.645Z,99.90
2018-04-26T06:09:04.232Z,99.90
2018-04-26T06:11:34.016Z,99.90
2018-04-26T06:14:03.832Z,99.90
2018-04-26T06:16:33.627Z,99.90
2018-04-26T06:19:04.202Z,99.90
2018-04-26T06:21:34.018Z,99.90
2018-04-26T06:24:04.093Z,99.90
2018-04-26T06:26:33.919Z,99.90
2018-04-26T06:29:03.719Z,99.90
2018-04-26T06:31:33.520Z,99.90
2018-04-26T06:34:04.096Z,99.90
2018-04-26T06:36:33.899Z,99.90
2018-04-26T06:39:03.711Z,99.90
2018-04-26T06:41:33.502Z,99.90
2018-04-26T06:44:03.312Z,99.90
2018-04-26T06:46:33.606Z,99.90
2018-04-26T06:49:03.516Z,99.90
2018-04-26T06:51:33.315Z,99.90
2018-04-26T06:54:03.126Z,99.90
2018-04-26T06:56:32.942Z,99.90
2018-04-26T06:59:02.758Z,99.90
2018-04-26T07:01:32.570Z,99.90
2018-04-26T07:04:02.551Z,99.90
2018-04-26T07:06:33.492Z,99.90
2018-04-26T07:09:03.432Z,99.90
2018-04-26T07:11:33.424Z,99.90
2018-04-26T07:14:03.312Z,99.90
2018-04-26T07:16:33.331Z,99.90
2018-04-26T07:19:04.118Z,99.90
2018-04-26T07:21:34.154Z,99.90
2018-04-26T07:24:03.952Z,99.90
2018-04-26T07:26:33.764Z,99.90
2018-04-26T07:29:03.590Z,99.90
2018-04-26T07:31:34.163Z,99.90
2018-04-26T07:34:03.984Z,99.90
2018-04-26T07:36:33.791Z,99.90
2018-04-26T07:39:03.592Z,99.90
2018-04-26T07:41:33.408Z,99.90
2018-04-26T07:44:03.226Z,99.90
2018-04-26T07:46:33.038Z,99.90
2018-04-26T07:49:02.851Z,99.90
2018-04-26T07:51:32.674Z,99.90
2018-04-26T07:54:02.488Z,99.90
2018-04-26T07:56:32.323Z,99.90
2018-04-26T07:59:02.142Z,99.90
2018-04-26T08:01:32.047Z,99.90
2018-04-26T08:04:01.775Z,99.90
2018-04-26T08:06:31.585Z,99.90
2018-04-26T08:09:01.396Z,99.90
2018-04-26T08:11:31.199Z,99.90
2018-04-26T08:14:01.006Z,99.90
2018-04-26T08:16:30.815Z,99.90
2018-04-26T08:19:00.644Z,99.90
2018-04-26T08:21:30.447Z,99.90
2018-04-26T08:24:00.264Z,99.90
2018-04-26T08:26:30.235Z,99.90
2018-04-26T08:29:00.053Z,99.90
2018-04-26T08:31:29.856Z,99.90
2018-04-26T08:33:59.759Z,99.90
2018-04-26T08:36:29.635Z,99.90
2018-04-26T08:38:59.447Z,99.90
2018-04-26T08:41:29.247Z,99.90
2018-04-26T08:43:59.144Z,99.90
2018-04-26T08:46:28.955Z,99.90
2018-04-26T08:48:58.776Z,99.90
2018-04-26T08:51:28.589Z,99.90
2018-04-26T08:53:58.395Z,99.90
2018-04-26T08:56:28.195Z,99.90
2018-04-26T08:58:58.013Z,99.90
2018-04-26T09:01:27.810Z,99.90
2018-04-26T09:03:57.623Z,99.90
2018-04-26T09:06:27.439Z,99.90
2018-04-26T09:08:57.263Z,99.90
2018-04-26T09:11:27.068Z,99.90
2018-04-26T09:13:56.874Z,99.90
2018-04-26T09:16:26.682Z,99.90
2018-04-26T09:18:56.495Z,99.90
2018-04-26T09:21:26.305Z,99.90
2018-04-26T09:23:56.131Z,99.90
2018-04-26T09:26:25.944Z,99.90
2018-04-26T09:28:55.752Z,99.90
2018-04-26T09:31:25.562Z,99.90
2018-04-26T09:33:55.380Z,99.90
2018-04-26T09:36:25.190Z,99.90
2018-04-26T09:38:55.230Z,99.90
2018-04-26T09:41:25.367Z,99.90
2018-04-26T09:43:55.326Z,99.90
2018-04-26T09:46:25.139Z,99.90
2018-04-26T09:48:54.953Z,99.90
2018-04-26T09:51:24.838Z,99.90
2018-04-26T09:53:55.396Z,99.90
2018-04-26T09:56:25.208Z,99.90
2018-04-26T09:58:55.006Z,99.90
2018-04-26T10:01:28.299Z,99.90
2018-04-26T10:04:04.171Z,99.90
2018-04-26T10:06:33.980Z,99.90
2018-04-26T10:09:03.822Z,99.90
2018-04-26T10:11:33.630Z,99.90
2018-04-26T10:14:03.424Z,99.90
2018-04-26T10:16:33.221Z,99.10
2018-04-26T10:19:03.017Z,98.30
2018-04-26T10:21:34.322Z,99.90
2018-04-26T10:24:04.127Z,99.90
2018-04-26T10:26:33.934Z,99.90
2018-04-26T10:29:03.743Z,99.20
2018-04-26T10:31:33.549Z,97.40
2018-04-26T10:34:03.343Z,96.20
2018-04-26T10:36:33.187Z,97.90
2018-04-26T10:39:02.964Z,97.30
2018-04-26T10:41:32.819Z,98.70
2018-04-26T10:44:02.612Z,98.10
2018-04-26T10:46:32.423Z,97.50
2018-04-26T10:49:02.224Z,97.80
2018-04-26T10:51:32.031Z,93.80
2018-04-26T10:54:01.832Z,92.20
2018-04-26T10:56:32.403Z,93.80
2018-04-26T10:59:02.203Z,93.40
2018-04-26T11:01:32.009Z,93.10
2018-04-26T11:04:01.805Z,90.40
2018-04-26T11:06:32.378Z,90.90
2018-04-26T11:09:02.166Z,91.00
2018-04-26T11:11:31.966Z,91.80
2018-04-26T11:14:01.762Z,89.00
2018-04-26T11:16:32.334Z,91.40
2018-04-26T11:19:02.122Z,91.50
2018-04-26T11:21:31.920Z,91.10
2018-04-26T11:24:01.729Z,92.30
2018-04-26T11:26:32.690Z,96.50
2018-04-26T11:29:02.096Z,96.40
2018-04-26T11:31:31.895Z,99.40
2018-04-26T11:34:01.679Z,99.90
2018-04-26T11:36:32.246Z,96.40
2018-04-26T11:39:02.040Z,96.40
2018-04-26T11:41:31.836Z,96.70
2018-04-26T11:44:02.402Z,94.20
2018-04-26T11:46:32.204Z,94.30
2018-04-26T11:49:02.001Z,90.90
2018-04-26T11:51:32.573Z,73.10
2018-04-26T11:54:02.368Z,73.00
2018-04-26T11:56:32.163Z,76.70
2018-04-26T11:59:01.959Z,79.80
2018-04-26T12:01:32.527Z,80.50
2018-04-26T12:04:02.323Z,80.60
2018-04-26T12:06:32.120Z,82.80
2018-04-26T12:09:02.674Z,80.80
2018-04-26T12:11:32.495Z,80.80
2018-04-26T12:14:02.283Z,79.20
2018-04-26T12:16:32.088Z,77.90
2018-04-26T12:19:02.663Z,74.30
2018-04-26T12:21:32.448Z,74.50
2018-04-26T12:24:02.272Z,77.10
2018-04-26T12:26:32.050Z,76.20
2018-04-26T12:29:02.701Z,76.00
2018-04-26T12:31:32.400Z,75.80
2018-04-26T12:34:02.234Z,75.70
2018-04-26T12:36:32.019Z,75.30
2018-04-26T12:39:02.591Z,80.20
2018-04-26T12:41:32.380Z,79.40
2018-04-26T12:44:02.374Z,79.40
2018-04-26T12:46:32.326Z,80.50
2018-04-26T12:49:02.265Z,82.30
2018-04-26T12:51:32.816Z,84.40
2018-04-26T12:54:02.618Z,89.00
2018-04-26T12:56:32.412Z,88.40
2018-04-26T12:59:02.211Z,92.20
2018-04-26T13:01:32.004Z,93.40
2018-04-26T13:04:01.801Z,95.80
2018-04-26T13:06:32.362Z,99.90
2018-04-26T13:09:02.154Z,99.90
2018-04-26T13:11:31.940Z,99.90
2018-04-26T13:14:02.507Z,99.90
2018-04-26T13:16:32.332Z,99.90
2018-04-26T13:19:02.131Z,95.90
2018-04-26T13:21:32.002Z,99.50
2018-04-26T13:24:01.756Z,93.10
2018-04-26T13:26:31.604Z,93.00
2018-04-26T13:29:01.374Z,92.80
2018-04-26T13:31:31.175Z,89.90
2018-04-26T13:34:00.981Z,90.50
2018-04-26T13:36:30.780Z,90.90
2018-04-26T13:39:01.353Z,91.20
2018-04-26T13:41:31.149Z,91.20
2018-04-26T13:44:00.938Z,94.40
2018-04-26T13:46:31.506Z,97.20
2018-04-26T13:49:01.296Z,97.20
2018-04-26T13:51:31.102Z,98.70
2018-04-26T13:54:01.658Z,99.90
2018-04-26T13:56:31.456Z,99.90
2018-04-26T13:59:01.274Z,99.90
2018-04-26T14:01:31.062Z,99.70
2018-04-26T14:04:01.622Z,91.90
2018-04-26T14:06:31.412Z,92.10
2018-04-26T14:09:01.206Z,84.90
2018-04-26T14:11:31.763Z,74.90
2018-04-26T14:14:01.551Z,74.90
2018-04-26T14:16:32.111Z,82.90
2018-04-26T14:19:01.912Z,82.40
2018-04-26T14:21:31.712Z,85.00
2018-04-26T14:24:02.282Z,90.40
2018-04-26T14:26:32.840Z,76.20
2018-04-26T14:29:02.644Z,76.00
2018-04-26T14:31:32.434Z,74.00
2018-04-26T14:34:02.246Z,68.50
2018-04-26T14:36:32.073Z,64.60
2018-04-26T14:39:01.850Z,68.00
2018-04-26T14:41:31.651Z,67.10
2018-04-26T14:44:01.451Z,59.80
2018-04-26T14:46:32.020Z,63.50
2018-04-26T14:49:01.838Z,63.50
2018-04-26T14:51:31.650Z,67.30
2018-04-26T14:54:02.224Z,73.70
2018-04-26T14:56:32.014Z,73.60
2018-04-26T14:59:01.826Z,76.60
2018-04-26T15:01:31.631Z,76.30
2018-04-26T15:04:01.416Z,71.70
2018-04-26T15:06:31.227Z,71.70
2018-04-26T15:09:01.020Z,66.10
2018-04-26T15:11:30.822Z,59.70
2018-04-26T15:14:01.379Z,58.40
2018-04-26T15:16:31.184Z,58.30
2018-04-26T15:19:00.983Z,61.80
2018-04-26T15:21:30.781Z,66.50
2018-04-26T15:24:01.331Z,72.60
2018-04-26T15:26:31.134Z,72.60
2018-04-26T15:29:00.924Z,76.50
2018-04-26T15:31:30.722Z,75.40
2018-04-26T15:34:00.520Z,77.00
2018-04-26T15:36:30.315Z,78.70
2018-04-26T15:39:00.107Z,81.60
2018-04-26T15:41:29.911Z,79.80
2018-04-26T15:43:59.711Z,82.10
2018-04-26T15:46:30.267Z,81.90
2018-04-26T15:49:00.059Z,81.90
2018-04-26T15:51:30.760Z,83.20
2018-04-26T15:54:18.155Z,83.10
2018-04-26T15:57:05.700Z,83.60
2018-04-26T15:59:53.312Z,80.30
2018-04-26T16:02:58.294Z,74.60
2018-04-26T16:05:45.833Z,75.20
2018-04-26T16:11:49.913Z,81.50
2018-04-26T16:14:37.456Z,83.00
2018-04-26T16:17:39.621Z,86.10
2018-04-26T16:20:32.671Z,88.60
2018-04-26T16:23:25.480Z,89.20
2018-04-26T16:26:13.891Z,90.00
2018-04-26T16:29:06.693Z,89.80
2018-04-26T16:31:59.836Z,87.60
2018-04-26T16:34:57.063Z,90.60
2018-04-26T16:37:50.050Z,90.60
2018-04-26T16:40:20.608Z,93.20
2018-04-26T16:42:50.404Z,93.20
2018-04-26T16:45:20.195Z,92.30
2018-04-26T16:47:50.775Z,92.60
2018-04-26T16:50:20.567Z,92.40
2018-04-26T16:52:50.379Z,94.60
2018-04-26T16:55:20.187Z,93.60
2018-04-26T16:57:49.994Z,92.20
2018-04-26T17:00:19.796Z,93.70
2018-04-26T17:02:49.591Z,91.50
2018-04-26T17:05:20.162Z,81.20
2018-04-26T17:07:49.951Z,81.10
2018-04-26T17:10:19.748Z,74.20
2018-04-26T17:12:50.313Z,73.40
2018-04-26T17:15:20.193Z,73.40
2018-04-26T17:17:50.750Z,72.50
2018-04-26T17:20:20.560Z,72.60
2018-04-26T17:22:50.353Z,72.00
2018-04-26T17:25:20.923Z,76.50
2018-04-26T17:27:50.818Z,76.40
2018-04-26T17:30:20.529Z,78.70
2018-04-26T17:32:50.318Z,80.00
2018-04-26T17:35:20.890Z,83.20
2018-04-26T17:37:50.692Z,83.10
2018-04-26T17:40:20.487Z,86.10
2018-04-26T17:42:50.286Z,85.50
2018-04-26T17:45:20.869Z,84.50
2018-04-26T17:47:50.656Z,84.40
2018-04-26T17:50:20.462Z,85.40
2018-04-26T17:52:50.274Z,86.00
2018-04-26T17:55:20.078Z,86.90
2018-04-26T17:57:49.874Z,88.80
2018-04-26T18:00:20.456Z,90.20
2018-04-26T18:02:50.250Z,90.10
2018-04-26T18:05:20.052Z,91.30
2018-04-26T18:07:49.850Z,91.80
2018-04-26T18:10:19.654Z,91.10
2018-04-26T18:12:50.210Z,91.70
2018-04-26T18:15:20.006Z,91.60
2018-04-26T18:17:49.800Z,92.20
2018-04-26T18:20:20.395Z,91.20
2018-04-26T18:22:50.171Z,91.10
2018-04-26T18:25:19.992Z,90.90
2018-04-26T18:27:49.780Z,91.90
2018-04-26T18:30:19.594Z,95.10
2018-04-26T18:32:49.559Z,95.60
2018-04-26T18:35:19.335Z,94.90
2018-04-26T18:37:49.152Z,95.00
2018-04-26T18:40:18.940Z,95.00
2018-04-26T18:42:48.749Z,95.90
2018-04-26T18:45:19.307Z,97.20
2018-04-26T18:47:49.116Z,97.10
2018-04-26T18:50:18.924Z,98.00
2018-04-26T18:52:48.719Z,96.60
2018-04-26T18:55:18.508Z,96.60
2018-04-26T18:57:48.327Z,95.90
2018-04-26T19:00:18.135Z,97.40
2018-04-26T19:02:48.789Z,97.60
2018-04-26T19:05:18.509Z,97.40
2018-04-26T19:07:48.316Z,99.20
2018-04-26T19:10:18.110Z,99.90
2018-04-26T19:12:48.675Z,99.90
2018-04-26T19:15:18.455Z,99.90
2018-04-26T19:17:49.028Z,99.90
2018-04-26T19:20:19.416Z,99.90
2018-04-26T19:22:50.525Z,99.90
2018-04-26T19:25:20.311Z,99.90
2018-04-26T19:27:50.193Z,99.90
2018-04-26T19:30:19.916Z,99.90
2018-04-26T19:32:49.707Z,99.90
2018-04-26T19:35:20.280Z,99.90
2018-04-26T19:37:50.087Z,99.90
2018-04-26T19:40:19.880Z,99.90
2018-04-26T19:42:49.671Z,99.90
2018-04-26T19:45:20.223Z,99.90
2018-04-26T19:47:50.035Z,99.90
2018-04-26T19:50:19.825Z,99.90
2018-04-26T19:52:50.409Z,99.90
2018-04-26T19:55:20.302Z,99.90
2018-04-26T19:57:50.110Z,99.90
2018-04-26T20:00:19.883Z,99.90
2018-04-26T20:02:49.741Z,99.90
2018-04-26T20:05:19.544Z,99.90
2018-04-26T20:07:49.331Z,99.90
2018-04-26T20:10:19.908Z,99.90
2018-04-26T20:12:50.161Z,99.90
2018-04-26T20:15:19.959Z,99.90
2018-04-26T20:17:49.755Z,99.90
2018-04-26T20:20:19.547Z,99.90
2018-04-26T20:22:49.353Z,99.90
2018-04-26T20:25:19.155Z,99.90
2018-04-26T20:27:48.935Z,99.90
2018-04-26T20:30:18.730Z,99.90
2018-04-26T20:32:48.523Z,99.90
2018-04-26T20:35:18.319Z,99.90
2018-04-26T20:37:48.103Z,99.90
2018-04-26T20:40:18.657Z,99.90
2018-04-26T20:42:48.441Z,99.90
2018-04-26T20:45:19.003Z,99.90
2018-04-26T20:47:48.795Z,99.90
2018-04-26T20:50:18.698Z,99.90
2018-04-26T20:52:48.607Z,99.90
2018-04-26T20:55:19.920Z,99.90
2018-04-26T20:57:50.352Z,99.90
2018-04-26T21:00:21.023Z,99.90
2018-04-26T21:02:50.941Z,99.90
2018-04-26T21:05:21.507Z,99.90
2018-04-26T21:07:51.334Z,99.90
2018-04-26T21:10:21.127Z,99.90
2018-04-26T21:12:50.910Z,99.90
2018-04-26T21:15:20.704Z,99.90
2018-04-26T21:17:51.254Z,99.90
2018-04-26T21:20:21.062Z,99.90
2018-04-26T21:22:51.607Z,99.90
2018-04-26T21:25:21.414Z,99.90
2018-04-26T21:27:51.225Z,99.90
2018-04-26T21:30:21.874Z,99.90
2018-04-26T21:32:51.703Z,99.90
2018-04-26T21:35:21.473Z,99.90
2018-04-26T21:37:52.036Z,99.90
2018-04-26T21:40:22.566Z,99.90
2018-04-26T21:42:54.174Z,99.90
2018-04-26T21:45:26.153Z,99.90
2018-04-26T21:47:56.687Z,99.90
2018-04-26T21:50:31.926Z,99.90
2018-04-26T21:53:07.123Z,99.90
2018-04-26T21:55:42.214Z,99.90
2018-04-26T21:58:17.275Z,99.90
2018-04-26T22:00:52.478Z,99.90
2018-04-26T22:03:27.487Z,99.90
2018-04-26T22:05:58.034Z,99.90
2018-04-26T22:08:27.853Z,99.90
2018-04-26T22:10:57.627Z,99.90
2018-04-26T22:13:27.425Z,99.90
2018-04-26T22:15:57.220Z,99.90
2018-04-26T22:18:27.775Z,99.90
2018-04-26T22:20:57.566Z,99.90
2018-04-26T22:23:27.361Z,99.90
2018-04-26T22:25:57.134Z,99.90
2018-04-26T22:28:27.702Z,99.90
2018-04-26T22:30:57.487Z,99.90
2018-04-26T22:33:27.296Z,99.90
2018-04-26T22:35:57.843Z,99.90
2018-04-26T22:38:27.639Z,99.90
2018-04-26T22:40:57.418Z,99.90
2018-04-26T22:43:27.211Z,99.90
2018-04-26T22:45:57.003Z,99.90
2018-04-26T22:48:26.798Z,99.90
2018-04-26T22:50:56.587Z,99.90
2018-04-26T22:53:27.156Z,99.90
2018-04-26T22:55:56.942Z,99.90
2018-04-26T22:58:26.740Z,99.90
2018-04-26T23:00:57.281Z,99.90
2018-04-26T23:03:27.075Z,99.90
2018-04-26T23:05:57.633Z,99.90
2018-04-26T23:08:27.437Z,99.90
2018-04-26T23:10:57.205Z,99.90
2018-04-26T23:13:27.138Z,99.90
2018-04-26T23:15:57.015Z,99.90
2018-04-26T23:18:26.787Z,99.90
2018-04-26T23:20:56.578Z,99.90
2018-04-26T23:23:27.134Z,99.90
2018-04-26T23:25:56.910Z,99.90
2018-04-26T23:28:26.711Z,99.90
2018-04-26T23:30:56.503Z,99.90
2018-04-26T23:33:26.303Z,99.90
2018-04-26T23:35:56.092Z,99.90
2018-04-26T23:38:25.889Z,99.90
2018-04-26T23:40:56.440Z,99.90
2018-04-26T23:43:26.231Z,99.90
2018-04-26T23:45:56.787Z,99.90
2018-04-26T23:48:26.591Z,99.90
2018-04-26T23:50:56.380Z,99.90
2018-04-26T23:53:26.938Z,99.90
2018-04-26T23:55:56.732Z,99.90
2018-04-26T23:58:27.293Z,99.90
